Airfield :
LOGIN :

Register | Disclaimer

   EN    FR    IT 

 










Legend :    VFR   Marginal VFR   IFR   Intensive IFR   Very Intensive IFR
Visi :
Ceiling :
>= 8 km
>= 3000ft
5 to 8 km
1000 to 3000 ft
1500m to 5 km
500 to 1000 ft
800 to 1500m
200 to 500 ft
< 800m
< 200 ft
Symbols :   Thunderstorms  Fog  Heavy snow  Heavy precipitations  Wind > 20 kt
SIGMETs :     Misc.  Thunderstorms  Icing  Turbulence  Mountain Waves  Volcanic Ashes







- Airport Elevation : 580 ft
- Download approach charts


LFOA - Avord

EXPIRED METARs :
  • 241430Z AUTO 31009KT 270V340 CAVOK 25/12 Q1018
  • 241400Z AUTO 29009KT 260V330 CAVOK 25/12 Q1019
  • 241330Z AUTO 27008KT 220V330 9999 FEW049 25/13 Q1019
  • 241300Z AUTO 28010G20KT 9999 FEW047 24/13 Q1019
  • 241230Z AUTO 28011KT 9999 FEW045 24/12 Q1020
  • 241200Z AUTO 28008KT 230V310 9999 FEW045 24/12 Q1020

Expired Forecast.
No reported NOTAMs for that airfield.
1 SIGMET reported for the Paris FIR (LFFF) :
 
Severe turbulence
LFFF SIGMET 1 VALID 250000/250300 LFPW
LFFF PARIS FIR/UIR SEV TURB FCST WI N5015 E00415 - N4930 E00600 - N4900 E00445 - N4830 E00530 - N4730 E00415 - N4645 E00445 - N4645 E00315 FL300/370 MOV SE 15KT NC=



MET'MAP, your aeronautical weather chart ! - Copyright ORBIFLY December 2007 - Disclaimer

ORBIFLY MET'MAP TEAM :

Programming & Development : Alexandra Zaïnal
Concept & Development : Baudouin d'Aumeries
Co-Development & Prog : Marc-Olivier Méhu
Technical & hardware support : Manuel Goepfert

Contact : metmap@orbifly.com




SOURCES & CREDITS :

   NOAA